Terminal Aerodrome Forecast
Issued by NWS

Home | Current Version | Previous Version | Text Only | Print | Product List | Glossary On
Versions: 1 2 3 4 5 6 7 8 9 10 11 12 13 14 15 16
000
FTUS44 KSJT 210500 RRA
TAFBBD
TAF
KBBD 210522Z 2105/2124 14005KT P6SM BKN020
     FM211000 15005KT 5SM BR BKN008
     FM211500 18007KT P6SM BKN015
     FM211800 15005KT P6SM BKN020
     FM212100 19010KT P6SM SCT025=

USA.gov is the U.S. government's official web portal to all federal, state and local government web resources and services.